sensor_id;sensor_type;location;lat;lon;timestamp;P1;durP1;ratioP1;P2;durP2;ratioP2
19891;SDS011;10108;50.142;8.724;2023-09-07T00:00:16;10.88;;;5.68;;
19891;SDS011;10108;50.142;8.724;2023-09-07T00:02:42;8.38;;;4.88;;
19891;SDS011;10108;50.142;8.724;2023-09-07T00:05:08;8.95;;;5.60;;
19891;SDS011;10108;50.142;8.724;2023-09-07T00:07:35;9.02;;;5.22;;
19891;SDS011;10108;50.142;8.724;2023-09-07T00:10:02;15.23;;;5.45;;
19891;SDS011;10108;50.142;8.724;2023-09-07T00:12:29;8.43;;;5.00;;
19891;SDS011;10108;50.142;8.724;2023-09-07T00:14:55;9.50;;;5.10;;
19891;SDS011;10108;50.142;8.724;2023-09-07T00:17:22;9.70;;;5.40;;
19891;SDS011;10108;50.142;8.724;2023-09-07T00:19:48;8.95;;;5.25;;
19891;SDS011;10108;50.142;8.724;2023-09-07T00:22:16;9.35;;;5.03;;
19891;SDS011;10108;50.142;8.724;2023-09-07T00:24:43;9.73;;;5.55;;
19891;SDS011;10108;50.142;8.724;2023-09-07T00:27:10;8.07;;;5.10;;
19891;SDS011;10108;50.142;8.724;2023-09-07T00:29:37;10.18;;;5.38;;
19891;SDS011;10108;50.142;8.724;2023-09-07T00:32:04;10.88;;;5.40;;
19891;SDS011;10108;50.142;8.724;2023-09-07T00:34:31;9.57;;;5.53;;
19891;SDS011;10108;50.142;8.724;2023-09-07T00:36:57;11.60;;;5.38;;
19891;SDS011;10108;50.142;8.724;2023-09-07T00:39:23;10.05;;;5.30;;
19891;SDS011;10108;50.142;8.724;2023-09-07T00:41:49;9.65;;;5.10;;
19891;SDS011;10108;50.142;8.724;2023-09-07T00:44:15;8.90;;;5.50;;
19891;SDS011;10108;50.142;8.724;2023-09-07T00:46:42;10.07;;;5.38;;
19891;SDS011;10108;50.142;8.724;2023-09-07T00:49:11;10.15;;;5.35;;
19891;SDS011;10108;50.142;8.724;2023-09-07T00:51:38;11.75;;;5.65;;
19891;SDS011;10108;50.142;8.724;2023-09-07T00:54:04;9.95;;;5.40;;
19891;SDS011;10108;50.142;8.724;2023-09-07T00:56:30;10.25;;;5.22;;
19891;SDS011;10108;50.142;8.724;2023-09-07T00:58:58;10.15;;;4.97;;
19891;SDS011;10108;50.142;8.724;2023-09-07T01:01:26;10.43;;;4.93;;
19891;SDS011;10108;50.142;8.724;2023-09-07T01:03:52;9.10;;;5.30;;
19891;SDS011;10108;50.142;8.724;2023-09-07T01:06:20;9.32;;;4.97;;
19891;SDS011;10108;50.142;8.724;2023-09-07T01:08:53;10.25;;;5.15;;
19891;SDS011;10108;50.142;8.724;2023-09-07T01:11:24;13.30;;;5.22;;
19891;SDS011;10108;50.142;8.724;2023-09-07T01:13:50;10.48;;;5.20;;
19891;SDS011;10108;50.142;8.724;2023-09-07T01:16:19;9.98;;;4.97;;
19891;SDS011;10108;50.142;8.724;2023-09-07T01:18:47;9.52;;;4.90;;
19891;SDS011;10108;50.142;8.724;2023-09-07T01:21:13;9.13;;;5.63;;
19891;SDS011;10108;50.142;8.724;2023-09-07T01:23:41;9.60;;;5.18;;
19891;SDS011;10108;50.142;8.724;2023-09-07T01:26:09;7.95;;;4.93;;
19891;SDS011;10108;50.142;8.724;2023-09-07T01:28:35;10.65;;;5.53;;
19891;SDS011;10108;50.142;8.724;2023-09-07T01:31:05;10.73;;;5.50;;
19891;SDS011;10108;50.142;8.724;2023-09-07T01:33:32;10.38;;;5.47;;
19891;SDS011;10108;50.142;8.724;2023-09-07T01:35:58;10.63;;;5.03;;
19891;SDS011;10108;50.142;8.724;2023-09-07T01:38:24;12.15;;;5.35;;
19891;SDS011;10108;50.142;8.724;2023-09-07T01:40:50;9.80;;;5.55;;
19891;SDS011;10108;50.142;8.724;2023-09-07T01:43:16;10.07;;;5.57;;
19891;SDS011;10108;50.142;8.724;2023-09-07T01:45:43;16.98;;;5.57;;
19891;SDS011;10108;50.142;8.724;2023-09-07T01:48:10;8.80;;;5.20;;
19891;SDS011;10108;50.142;8.724;2023-09-07T01:50:39;11.55;;;5.70;;
19891;SDS011;10108;50.142;8.724;2023-09-07T01:53:05;8.10;;;4.93;;
19891;SDS011;10108;50.142;8.724;2023-09-07T01:55:32;11.07;;;5.43;;
19891;SDS011;10108;50.142;8.724;2023-09-07T01:57:59;9.85;;;5.35;;
19891;SDS011;10108;50.142;8.724;2023-09-07T02:00:25;11.10;;;5.90;;
19891;SDS011;10108;50.142;8.724;2023-09-07T02:02:51;10.30;;;5.93;;
19891;SDS011;10108;50.142;8.724;2023-09-07T02:05:18;10.10;;;5.28;;
19891;SDS011;10108;50.142;8.724;2023-09-07T02:07:44;10.63;;;6.05;;
19891;SDS011;10108;50.142;8.724;2023-09-07T02:10:10;10.27;;;5.85;;
19891;SDS011;10108;50.142;8.724;2023-09-07T02:12:36;10.05;;;5.53;;
19891;SDS011;10108;50.142;8.724;2023-09-07T02:15:03;9.30;;;5.20;;
19891;SDS011;10108;50.142;8.724;2023-09-07T02:17:30;9.50;;;5.32;;
19891;SDS011;10108;50.142;8.724;2023-09-07T02:19:57;9.95;;;5.63;;
19891;SDS011;10108;50.142;8.724;2023-09-07T02:22:25;10.95;;;5.80;;
19891;SDS011;10108;50.142;8.724;2023-09-07T02:24:51;10.43;;;5.78;;
19891;SDS011;10108;50.142;8.724;2023-09-07T02:27:18;11.05;;;6.28;;
19891;SDS011;10108;50.142;8.724;2023-09-07T02:29:44;11.15;;;5.30;;
19891;SDS011;10108;50.142;8.724;2023-09-07T02:32:10;10.13;;;6.03;;
19891;SDS011;10108;50.142;8.724;2023-09-07T02:34:37;10.88;;;6.18;;
19891;SDS011;10108;50.142;8.724;2023-09-07T02:37:03;13.05;;;5.45;;
19891;SDS011;10108;50.142;8.724;2023-09-07T02:39:30;9.95;;;5.90;;
19891;SDS011;10108;50.142;8.724;2023-09-07T02:41:56;11.50;;;5.80;;
19891;SDS011;10108;50.142;8.724;2023-09-07T02:44:22;11.10;;;5.93;;
19891;SDS011;10108;50.142;8.724;2023-09-07T02:46:48;12.32;;;6.38;;
19891;SDS011;10108;50.142;8.724;2023-09-07T02:49:14;11.80;;;6.00;;
19891;SDS011;10108;50.142;8.724;2023-09-07T02:51:41;10.40;;;5.78;;
19891;SDS011;10108;50.142;8.724;2023-09-07T02:54:07;10.43;;;5.90;;
19891;SDS011;10108;50.142;8.724;2023-09-07T02:56:33;9.57;;;5.85;;
19891;SDS011;10108;50.142;8.724;2023-09-07T02:58:59;12.27;;;6.35;;
19891;SDS011;10108;50.142;8.724;2023-09-07T03:01:26;11.13;;;6.72;;
19891;SDS011;10108;50.142;8.724;2023-09-07T03:03:52;13.85;;;6.38;;
19891;SDS011;10108;50.142;8.724;2023-09-07T03:06:19;10.30;;;6.38;;
19891;SDS011;10108;50.142;8.724;2023-09-07T03:08:48;11.80;;;6.47;;
19891;SDS011;10108;50.142;8.724;2023-09-07T03:11:15;12.43;;;5.93;;
19891;SDS011;10108;50.142;8.724;2023-09-07T03:13:41;10.35;;;6.07;;
19891;SDS011;10108;50.142;8.724;2023-09-07T03:16:08;12.85;;;6.65;;
19891;SDS011;10108;50.142;8.724;2023-09-07T03:18:35;10.90;;;6.43;;
19891;SDS011;10108;50.142;8.724;2023-09-07T03:21:01;9.75;;;6.03;;
19891;SDS011;10108;50.142;8.724;2023-09-07T03:23:29;12.23;;;6.30;;
19891;SDS011;10108;50.142;8.724;2023-09-07T03:25:57;11.77;;;6.57;;
19891;SDS011;10108;50.142;8.724;2023-09-07T03:28:24;10.23;;;6.00;;
19891;SDS011;10108;50.142;8.724;2023-09-07T03:30:53;11.18;;;6.38;;
19891;SDS011;10108;50.142;8.724;2023-09-07T03:33:20;10.75;;;6.28;;
19891;SDS011;10108;50.142;8.724;2023-09-07T03:35:47;12.50;;;6.43;;
19891;SDS011;10108;50.142;8.724;2023-09-07T03:38:13;9.95;;;5.90;;
19891;SDS011;10108;50.142;8.724;2023-09-07T03:40:40;9.65;;;6.15;;
19891;SDS011;10108;50.142;8.724;2023-09-07T03:43:06;11.93;;;6.20;;
19891;SDS011;10108;50.142;8.724;2023-09-07T03:45:33;11.48;;;6.75;;
19891;SDS011;10108;50.142;8.724;2023-09-07T03:47:59;11.10;;;6.32;;
19891;SDS011;10108;50.142;8.724;2023-09-07T03:50:26;10.00;;;6.20;;
19891;SDS011;10108;50.142;8.724;2023-09-07T03:52:52;9.77;;;5.82;;
19891;SDS011;10108;50.142;8.724;2023-09-07T03:55:18;10.73;;;6.13;;
19891;SDS011;10108;50.142;8.724;2023-09-07T03:57:44;10.70;;;6.45;;
19891;SDS011;10108;50.142;8.724;2023-09-07T04:00:11;10.05;;;6.05;;
19891;SDS011;10108;50.142;8.724;2023-09-07T04:02:44;11.10;;;6.15;;
19891;SDS011;10108;50.142;8.724;2023-09-07T04:05:10;11.90;;;6.30;;
19891;SDS011;10108;50.142;8.724;2023-09-07T04:07:37;11.20;;;6.53;;
19891;SDS011;10108;50.142;8.724;2023-09-07T04:10:04;10.30;;;6.55;;
19891;SDS011;10108;50.142;8.724;2023-09-07T04:12:31;11.35;;;6.20;;
19891;SDS011;10108;50.142;8.724;2023-09-07T04:15:00;10.88;;;6.20;;
19891;SDS011;10108;50.142;8.724;2023-09-07T04:17:29;11.00;;;6.35;;
19891;SDS011;10108;50.142;8.724;2023-09-07T04:19:56;9.98;;;6.05;;
19891;SDS011;10108;50.142;8.724;2023-09-07T04:22:22;10.05;;;6.05;;
19891;SDS011;10108;50.142;8.724;2023-09-07T04:24:48;10.32;;;6.53;;
19891;SDS011;10108;50.142;8.724;2023-09-07T04:27:15;12.98;;;6.30;;
19891;SDS011;10108;50.142;8.724;2023-09-07T04:29:41;13.40;;;6.38;;
19891;SDS011;10108;50.142;8.724;2023-09-07T04:32:07;10.18;;;6.00;;
19891;SDS011;10108;50.142;8.724;2023-09-07T04:34:34;9.63;;;5.97;;
19891;SDS011;10108;50.142;8.724;2023-09-07T04:37:00;11.52;;;6.63;;
19891;SDS011;10108;50.142;8.724;2023-09-07T04:39:26;10.82;;;5.80;;
19891;SDS011;10108;50.142;8.724;2023-09-07T04:41:53;10.40;;;6.07;;
19891;SDS011;10108;50.142;8.724;2023-09-07T04:44:19;12.98;;;6.38;;
19891;SDS011;10108;50.142;8.724;2023-09-07T04:46:46;12.05;;;6.63;;
19891;SDS011;10108;50.142;8.724;2023-09-07T04:49:12;9.82;;;6.18;;
19891;SDS011;10108;50.142;8.724;2023-09-07T04:51:38;12.77;;;6.50;;
19891;SDS011;10108;50.142;8.724;2023-09-07T04:54:04;11.07;;;6.50;;
19891;SDS011;10108;50.142;8.724;2023-09-07T04:56:31;10.82;;;6.30;;
19891;SDS011;10108;50.142;8.724;2023-09-07T04:58:57;9.57;;;6.28;;
19891;SDS011;10108;50.142;8.724;2023-09-07T05:01:24;9.48;;;6.03;;
19891;SDS011;10108;50.142;8.724;2023-09-07T05:03:51;9.63;;;6.10;;
19891;SDS011;10108;50.142;8.724;2023-09-07T05:06:18;11.88;;;6.22;;
19891;SDS011;10108;50.142;8.724;2023-09-07T05:08:45;10.20;;;6.30;;
19891;SDS011;10108;50.142;8.724;2023-09-07T05:11:11;13.02;;;6.55;;
19891;SDS011;10108;50.142;8.724;2023-09-07T05:13:38;15.30;;;6.53;;
19891;SDS011;10108;50.142;8.724;2023-09-07T05:16:04;12.32;;;6.25;;
19891;SDS011;10108;50.142;8.724;2023-09-07T05:18:31;10.38;;;6.07;;
19891;SDS011;10108;50.142;8.724;2023-09-07T05:20:57;10.93;;;5.97;;
19891;SDS011;10108;50.142;8.724;2023-09-07T05:23:24;9.48;;;6.00;;
19891;SDS011;10108;50.142;8.724;2023-09-07T05:25:52;12.07;;;6.90;;
19891;SDS011;10108;50.142;8.724;2023-09-07T05:28:22;10.55;;;6.40;;
19891;SDS011;10108;50.142;8.724;2023-09-07T05:30:50;10.57;;;6.10;;
19891;SDS011;10108;50.142;8.724;2023-09-07T05:33:17;18.90;;;6.75;;
19891;SDS011;10108;50.142;8.724;2023-09-07T05:35:44;11.52;;;5.70;;
19891;SDS011;10108;50.142;8.724;2023-09-07T05:38:11;10.95;;;6.10;;
19891;SDS011;10108;50.142;8.724;2023-09-07T05:40:39;10.40;;;5.90;;
19891;SDS011;10108;50.142;8.724;2023-09-07T05:43:06;11.40;;;6.38;;
19891;SDS011;10108;50.142;8.724;2023-09-07T05:45:34;10.82;;;6.22;;
19891;SDS011;10108;50.142;8.724;2023-09-07T05:48:05;12.13;;;6.80;;
19891;SDS011;10108;50.142;8.724;2023-09-07T05:50:33;11.68;;;6.53;;
19891;SDS011;10108;50.142;8.724;2023-09-07T05:53:01;11.20;;;6.25;;
19891;SDS011;10108;50.142;8.724;2023-09-07T05:55:28;11.07;;;6.75;;
19891;SDS011;10108;50.142;8.724;2023-09-07T05:57:55;10.10;;;6.20;;
19891;SDS011;10108;50.142;8.724;2023-09-07T06:00:22;10.73;;;6.30;;
19891;SDS011;10108;50.142;8.724;2023-09-07T06:02:49;10.15;;;6.05;;
19891;SDS011;10108;50.142;8.724;2023-09-07T06:05:16;12.70;;;6.53;;
19891;SDS011;10108;50.142;8.724;2023-09-07T06:07:44;12.13;;;7.03;;
19891;SDS011;10108;50.142;8.724;2023-09-07T06:10:12;10.52;;;6.22;;
19891;SDS011;10108;50.142;8.724;2023-09-07T06:12:38;11.45;;;6.47;;
19891;SDS011;10108;50.142;8.724;2023-09-07T06:15:05;10.35;;;5.97;;
19891;SDS011;10108;50.142;8.724;2023-09-07T06:17:32;12.55;;;6.68;;
19891;SDS011;10108;50.142;8.724;2023-09-07T06:19:58;11.93;;;6.57;;
19891;SDS011;10108;50.142;8.724;2023-09-07T06:22:25;11.73;;;6.40;;
19891;SDS011;10108;50.142;8.724;2023-09-07T06:24:51;12.48;;;6.25;;
19891;SDS011;10108;50.142;8.724;2023-09-07T06:27:18;11.05;;;6.22;;
19891;SDS011;10108;50.142;8.724;2023-09-07T06:29:45;16.23;;;6.07;;
19891;SDS011;10108;50.142;8.724;2023-09-07T06:32:12;11.68;;;6.47;;
19891;SDS011;10108;50.142;8.724;2023-09-07T06:34:39;13.50;;;6.68;;
19891;SDS011;10108;50.142;8.724;2023-09-07T06:37:05;11.95;;;6.35;;
19891;SDS011;10108;50.142;8.724;2023-09-07T06:39:31;12.02;;;6.70;;
19891;SDS011;10108;50.142;8.724;2023-09-07T06:41:58;11.13;;;6.25;;
19891;SDS011;10108;50.142;8.724;2023-09-07T06:44:29;10.85;;;6.22;;
19891;SDS011;10108;50.142;8.724;2023-09-07T06:46:56;10.93;;;6.53;;
19891;SDS011;10108;50.142;8.724;2023-09-07T06:49:22;12.75;;;6.50;;
19891;SDS011;10108;50.142;8.724;2023-09-07T06:51:48;13.10;;;6.90;;
19891;SDS011;10108;50.142;8.724;2023-09-07T06:54:15;16.48;;;6.63;;
19891;SDS011;10108;50.142;8.724;2023-09-07T06:56:42;10.90;;;6.00;;
19891;SDS011;10108;50.142;8.724;2023-09-07T06:59:08;10.85;;;6.47;;
19891;SDS011;10108;50.142;8.724;2023-09-07T07:01:34;13.18;;;6.95;;
19891;SDS011;10108;50.142;8.724;2023-09-07T07:04:01;10.77;;;6.43;;
19891;SDS011;10108;50.142;8.724;2023-09-07T07:06:28;9.85;;;6.32;;
19891;SDS011;10108;50.142;8.724;2023-09-07T07:08:54;12.98;;;7.05;;
19891;SDS011;10108;50.142;8.724;2023-09-07T07:11:20;11.23;;;6.28;;
19891;SDS011;10108;50.142;8.724;2023-09-07T07:13:47;12.50;;;7.18;;
19891;SDS011;10108;50.142;8.724;2023-09-07T07:16:13;12.02;;;6.82;;
19891;SDS011;10108;50.142;8.724;2023-09-07T07:18:40;12.10;;;6.88;;
19891;SDS011;10108;50.142;8.724;2023-09-07T07:21:06;10.75;;;6.63;;
19891;SDS011;10108;50.142;8.724;2023-09-07T07:23:32;9.88;;;6.25;;
19891;SDS011;10108;50.142;8.724;2023-09-07T07:25:58;13.45;;;6.50;;
19891;SDS011;10108;50.142;8.724;2023-09-07T07:28:26;12.10;;;6.95;;
19891;SDS011;10108;50.142;8.724;2023-09-07T07:30:52;9.88;;;6.30;;
19891;SDS011;10108;50.142;8.724;2023-09-07T07:33:20;11.50;;;6.10;;
19891;SDS011;10108;50.142;8.724;2023-09-07T07:35:46;10.13;;;6.45;;
19891;SDS011;10108;50.142;8.724;2023-09-07T07:38:14;13.77;;;6.68;;
19891;SDS011;10108;50.142;8.724;2023-09-07T07:40:41;10.45;;;6.45;;
19891;SDS011;10108;50.142;8.724;2023-09-07T07:43:08;10.68;;;6.63;;
19891;SDS011;10108;50.142;8.724;2023-09-07T07:45:36;13.07;;;6.97;;
19891;SDS011;10108;50.142;8.724;2023-09-07T07:48:04;11.27;;;6.47;;
19891;SDS011;10108;50.142;8.724;2023-09-07T07:50:42;11.93;;;6.63;;
19891;SDS011;10108;50.142;8.724;2023-09-07T07:53:11;11.18;;;6.10;;
19891;SDS011;10108;50.142;8.724;2023-09-07T07:55:38;13.60;;;7.40;;
19891;SDS011;10108;50.142;8.724;2023-09-07T07:58:08;12.80;;;6.95;;
19891;SDS011;10108;50.142;8.724;2023-09-07T08:00:38;10.40;;;6.03;;
19891;SDS011;10108;50.142;8.724;2023-09-07T08:03:07;9.90;;;6.35;;
19891;SDS011;10108;50.142;8.724;2023-09-07T08:05:35;9.02;;;6.22;;
19891;SDS011;10108;50.142;8.724;2023-09-07T08:08:01;11.25;;;6.63;;
19891;SDS011;10108;50.142;8.724;2023-09-07T08:10:29;11.52;;;6.80;;
19891;SDS011;10108;50.142;8.724;2023-09-07T08:12:55;11.43;;;6.32;;
19891;SDS011;10108;50.142;8.724;2023-09-07T08:15:23;10.55;;;6.75;;
19891;SDS011;10108;50.142;8.724;2023-09-07T08:17:51;11.50;;;6.45;;
19891;SDS011;10108;50.142;8.724;2023-09-07T08:20:17;11.77;;;6.68;;
19891;SDS011;10108;50.142;8.724;2023-09-07T08:22:43;16.67;;;7.30;;
19891;SDS011;10108;50.142;8.724;2023-09-07T08:25:11;15.07;;;6.30;;
19891;SDS011;10108;50.142;8.724;2023-09-07T08:27:43;14.70;;;7.22;;
19891;SDS011;10108;50.142;8.724;2023-09-07T08:30:10;10.23;;;6.25;;
19891;SDS011;10108;50.142;8.724;2023-09-07T08:32:44;11.82;;;6.82;;
19891;SDS011;10108;50.142;8.724;2023-09-07T08:35:11;12.45;;;6.72;;
19891;SDS011;10108;50.142;8.724;2023-09-07T08:37:42;10.48;;;6.28;;
19891;SDS011;10108;50.142;8.724;2023-09-07T08:40:09;10.50;;;6.32;;
19891;SDS011;10108;50.142;8.724;2023-09-07T08:42:36;10.15;;;6.07;;
19891;SDS011;10108;50.142;8.724;2023-09-07T08:45:03;12.07;;;6.50;;
19891;SDS011;10108;50.142;8.724;2023-09-07T08:47:33;9.60;;;6.35;;
19891;SDS011;10108;50.142;8.724;2023-09-07T08:50:00;10.90;;;6.78;;
19891;SDS011;10108;50.142;8.724;2023-09-07T08:52:28;11.60;;;6.93;;
19891;SDS011;10108;50.142;8.724;2023-09-07T08:54:55;10.13;;;6.32;;
19891;SDS011;10108;50.142;8.724;2023-09-07T08:57:24;14.60;;;6.60;;
19891;SDS011;10108;50.142;8.724;2023-09-07T08:59:52;11.38;;;6.82;;
19891;SDS011;10108;50.142;8.724;2023-09-07T09:02:19;11.38;;;6.63;;
19891;SDS011;10108;50.142;8.724;2023-09-07T09:04:46;10.70;;;6.72;;
19891;SDS011;10108;50.142;8.724;2023-09-07T09:07:12;10.45;;;6.82;;
19891;SDS011;10108;50.142;8.724;2023-09-07T09:09:38;12.32;;;7.22;;
19891;SDS011;10108;50.142;8.724;2023-09-07T09:12:11;10.68;;;6.60;;
19891;SDS011;10108;50.142;8.724;2023-09-07T09:14:42;10.77;;;6.60;;
19891;SDS011;10108;50.142;8.724;2023-09-07T09:17:13;10.75;;;6.60;;
19891;SDS011;10108;50.142;8.724;2023-09-07T09:19:40;12.73;;;6.50;;
19891;SDS011;10108;50.142;8.724;2023-09-07T09:22:07;15.70;;;7.20;;
19891;SDS011;10108;50.142;8.724;2023-09-07T09:24:33;10.55;;;6.40;;
19891;SDS011;10108;50.142;8.724;2023-09-07T09:27:00;11.48;;;7.00;;
19891;SDS011;10108;50.142;8.724;2023-09-07T09:29:27;11.05;;;6.72;;
19891;SDS011;10108;50.142;8.724;2023-09-07T09:31:53;13.60;;;6.97;;
19891;SDS011;10108;50.142;8.724;2023-09-07T09:34:20;10.23;;;7.03;;
19891;SDS011;10108;50.142;8.724;2023-09-07T09:36:46;11.55;;;6.70;;
19891;SDS011;10108;50.142;8.724;2023-09-07T09:39:22;10.95;;;6.40;;
19891;SDS011;10108;50.142;8.724;2023-09-07T09:41:49;14.93;;;6.38;;
19891;SDS011;10108;50.142;8.724;2023-09-07T09:44:16;11.00;;;6.30;;
19891;SDS011;10108;50.142;8.724;2023-09-07T09:46:46;9.27;;;6.10;;
19891;SDS011;10108;50.142;8.724;2023-09-07T09:49:13;9.63;;;6.05;;
19891;SDS011;10108;50.142;8.724;2023-09-07T09:51:40;11.25;;;6.05;;
19891;SDS011;10108;50.142;8.724;2023-09-07T09:54:08;11.70;;;6.03;;
19891;SDS011;10108;50.142;8.724;2023-09-07T09:56:35;9.77;;;6.10;;
19891;SDS011;10108;50.142;8.724;2023-09-07T09:59:01;14.02;;;6.40;;
19891;SDS011;10108;50.142;8.724;2023-09-07T10:01:28;12.02;;;6.72;;
19891;SDS011;10108;50.142;8.724;2023-09-07T10:03:55;9.23;;;6.20;;
19891;SDS011;10108;50.142;8.724;2023-09-07T10:06:24;12.18;;;6.43;;
19891;SDS011;10108;50.142;8.724;2023-09-07T10:09:02;11.02;;;6.03;;
19891;SDS011;10108;50.142;8.724;2023-09-07T10:11:33;9.52;;;6.28;;
19891;SDS011;10108;50.142;8.724;2023-09-07T10:14:01;11.73;;;6.32;;
19891;SDS011;10108;50.142;8.724;2023-09-07T10:16:40;11.30;;;6.60;;
19891;SDS011;10108;50.142;8.724;2023-09-07T10:19:28;12.48;;;6.72;;
19891;SDS011;10108;50.142;8.724;2023-09-07T10:21:54;11.45;;;6.32;;
19891;SDS011;10108;50.142;8.724;2023-09-07T10:24:24;9.73;;;6.40;;
19891;SDS011;10108;50.142;8.724;2023-09-07T10:27:06;13.20;;;6.32;;
19891;SDS011;10108;50.142;8.724;2023-09-07T10:29:42;11.05;;;6.32;;
19891;SDS011;10108;50.142;8.724;2023-09-07T10:32:16;11.52;;;6.55;;
19891;SDS011;10108;50.142;8.724;2023-09-07T10:34:42;11.23;;;6.47;;
19891;SDS011;10108;50.142;8.724;2023-09-07T10:37:12;10.02;;;6.20;;
19891;SDS011;10108;50.142;8.724;2023-09-07T10:39:40;10.55;;;6.40;;
19891;SDS011;10108;50.142;8.724;2023-09-07T10:42:20;12.55;;;6.35;;
19891;SDS011;10108;50.142;8.724;2023-09-07T10:44:49;13.07;;;6.57;;
19891;SDS011;10108;50.142;8.724;2023-09-07T10:47:15;11.45;;;6.20;;
19891;SDS011;10108;50.142;8.724;2023-09-07T10:49:42;11.68;;;6.82;;
19891;SDS011;10108;50.142;8.724;2023-09-07T10:52:08;12.38;;;6.18;;
19891;SDS011;10108;50.142;8.724;2023-09-07T10:54:35;10.10;;;6.15;;
19891;SDS011;10108;50.142;8.724;2023-09-07T10:57:08;10.65;;;6.15;;
19891;SDS011;10108;50.142;8.724;2023-09-07T10:59:36;10.10;;;6.32;;
19891;SDS011;10108;50.142;8.724;2023-09-07T11:02:05;10.75;;;5.93;;
19891;SDS011;10108;50.142;8.724;2023-09-07T11:04:32;11.38;;;6.40;;
19891;SDS011;10108;50.142;8.724;2023-09-07T11:06:58;9.93;;;5.78;;
19891;SDS011;10108;50.142;8.724;2023-09-07T11:09:25;9.65;;;6.05;;
19891;SDS011;10108;50.142;8.724;2023-09-07T11:11:51;10.07;;;6.57;;
19891;SDS011;10108;50.142;8.724;2023-09-07T11:14:17;13.63;;;6.43;;
19891;SDS011;10108;50.142;8.724;2023-09-07T11:16:47;10.82;;;5.85;;
19891;SDS011;10108;50.142;8.724;2023-09-07T11:19:13;11.23;;;5.85;;
19891;SDS011;10108;50.142;8.724;2023-09-07T11:21:41;9.48;;;5.68;;
19891;SDS011;10108;50.142;8.724;2023-09-07T11:24:08;10.07;;;6.15;;
19891;SDS011;10108;50.142;8.724;2023-09-07T11:26:44;9.95;;;6.25;;
19891;SDS011;10108;50.142;8.724;2023-09-07T11:29:17;11.82;;;5.75;;
19891;SDS011;10108;50.142;8.724;2023-09-07T11:31:46;10.68;;;6.13;;
19891;SDS011;10108;50.142;8.724;2023-09-07T11:34:13;11.48;;;5.95;;
19891;SDS011;10108;50.142;8.724;2023-09-07T11:36:40;9.23;;;5.90;;
19891;SDS011;10108;50.142;8.724;2023-09-07T11:39:07;10.07;;;5.95;;
19891;SDS011;10108;50.142;8.724;2023-09-07T11:41:40;10.95;;;6.18;;
19891;SDS011;10108;50.142;8.724;2023-09-07T11:44:07;10.00;;;5.72;;
19891;SDS011;10108;50.142;8.724;2023-09-07T11:46:34;12.90;;;6.50;;
19891;SDS011;10108;50.142;8.724;2023-09-07T11:49:00;9.02;;;5.88;;
19891;SDS011;10108;50.142;8.724;2023-09-07T11:51:26;8.85;;;5.72;;
19891;SDS011;10108;50.142;8.724;2023-09-07T11:53:52;12.07;;;6.63;;
19891;SDS011;10108;50.142;8.724;2023-09-07T11:56:19;11.90;;;6.38;;
19891;SDS011;10108;50.142;8.724;2023-09-07T11:58:45;13.55;;;5.78;;
19891;SDS011;10108;50.142;8.724;2023-09-07T12:01:11;11.30;;;6.00;;
19891;SDS011;10108;50.142;8.724;2023-09-07T12:03:37;9.63;;;6.15;;
19891;SDS011;10108;50.142;8.724;2023-09-07T12:06:03;11.63;;;6.32;;
19891;SDS011;10108;50.142;8.724;2023-09-07T12:08:29;12.60;;;6.03;;
19891;SDS011;10108;50.142;8.724;2023-09-07T12:10:58;11.52;;;6.05;;
19891;SDS011;10108;50.142;8.724;2023-09-07T12:13:24;11.48;;;6.18;;
19891;SDS011;10108;50.142;8.724;2023-09-07T12:15:51;10.88;;;6.70;;
19891;SDS011;10108;50.142;8.724;2023-09-07T12:18:18;13.65;;;6.63;;
19891;SDS011;10108;50.142;8.724;2023-09-07T12:20:44;15.35;;;6.43;;
19891;SDS011;10108;50.142;8.724;2023-09-07T12:23:10;14.43;;;5.90;;
19891;SDS011;10108;50.142;8.724;2023-09-07T12:25:36;15.32;;;6.40;;
19891;SDS011;10108;50.142;8.724;2023-09-07T12:28:03;13.13;;;6.72;;
19891;SDS011;10108;50.142;8.724;2023-09-07T12:30:32;15.63;;;6.20;;
19891;SDS011;10108;50.142;8.724;2023-09-07T12:32:58;10.95;;;5.97;;
19891;SDS011;10108;50.142;8.724;2023-09-07T12:35:24;11.98;;;6.20;;
19891;SDS011;10108;50.142;8.724;2023-09-07T12:37:50;13.27;;;6.25;;
19891;SDS011;10108;50.142;8.724;2023-09-07T12:40:16;12.05;;;6.13;;
19891;SDS011;10108;50.142;8.724;2023-09-07T12:42:43;13.07;;;6.53;;
19891;SDS011;10108;50.142;8.724;2023-09-07T12:45:11;21.13;;;6.50;;
19891;SDS011;10108;50.142;8.724;2023-09-07T12:47:39;13.23;;;6.00;;
19891;SDS011;10108;50.142;8.724;2023-09-07T12:50:06;13.80;;;5.70;;
19891;SDS011;10108;50.142;8.724;2023-09-07T12:52:32;13.20;;;6.00;;
19891;SDS011;10108;50.142;8.724;2023-09-07T12:55:02;14.70;;;5.93;;
19891;SDS011;10108;50.142;8.724;2023-09-07T12:57:29;10.70;;;5.85;;
19891;SDS011;10108;50.142;8.724;2023-09-07T12:59:55;12.18;;;6.35;;
19891;SDS011;10108;50.142;8.724;2023-09-07T13:02:21;13.95;;;5.80;;
19891;SDS011;10108;50.142;8.724;2023-09-07T13:04:47;11.43;;;6.25;;
19891;SDS011;10108;50.142;8.724;2023-09-07T13:07:13;16.52;;;6.55;;
19891;SDS011;10108;50.142;8.724;2023-09-07T13:09:42;11.18;;;5.82;;
19891;SDS011;10108;50.142;8.724;2023-09-07T13:12:09;12.32;;;6.28;;
19891;SDS011;10108;50.142;8.724;2023-09-07T13:14:35;15.52;;;6.18;;
19891;SDS011;10108;50.142;8.724;2023-09-07T13:17:01;13.48;;;6.60;;
19891;SDS011;10108;50.142;8.724;2023-09-07T13:19:27;13.32;;;6.03;;
19891;SDS011;10108;50.142;8.724;2023-09-07T13:21:54;10.23;;;5.97;;
19891;SDS011;10108;50.142;8.724;2023-09-07T13:24:20;10.98;;;6.50;;
19891;SDS011;10108;50.142;8.724;2023-09-07T13:26:50;13.02;;;6.65;;
19891;SDS011;10108;50.142;8.724;2023-09-07T13:29:16;10.95;;;6.57;;
19891;SDS011;10108;50.142;8.724;2023-09-07T13:31:42;10.40;;;5.95;;
19891;SDS011;10108;50.142;8.724;2023-09-07T13:34:08;13.88;;;6.35;;
19891;SDS011;10108;50.142;8.724;2023-09-07T13:36:35;11.77;;;6.25;;
19891;SDS011;10108;50.142;8.724;2023-09-07T13:39:01;10.38;;;6.10;;
19891;SDS011;10108;50.142;8.724;2023-09-07T13:41:27;11.93;;;6.10;;
19891;SDS011;10108;50.142;8.724;2023-09-07T13:43:53;10.68;;;5.90;;
19891;SDS011;10108;50.142;8.724;2023-09-07T13:46:19;12.07;;;6.20;;
19891;SDS011;10108;50.142;8.724;2023-09-07T13:48:46;11.82;;;5.93;;
19891;SDS011;10108;50.142;8.724;2023-09-07T13:51:12;13.75;;;6.10;;
19891;SDS011;10108;50.142;8.724;2023-09-07T13:53:38;12.10;;;5.85;;
19891;SDS011;10108;50.142;8.724;2023-09-07T13:56:04;11.88;;;6.07;;
19891;SDS011;10108;50.142;8.724;2023-09-07T13:58:30;10.98;;;6.25;;
19891;SDS011;10108;50.142;8.724;2023-09-07T14:00:56;11.60;;;6.22;;
19891;SDS011;10108;50.142;8.724;2023-09-07T14:03:22;14.70;;;6.32;;
19891;SDS011;10108;50.142;8.724;2023-09-07T14:05:48;13.48;;;6.88;;
19891;SDS011;10108;50.142;8.724;2023-09-07T14:08:15;13.77;;;6.68;;
19891;SDS011;10108;50.142;8.724;2023-09-07T14:10:42;15.23;;;6.07;;
19891;SDS011;10108;50.142;8.724;2023-09-07T14:13:08;13.10;;;6.38;;
19891;SDS011;10108;50.142;8.724;2023-09-07T14:15:35;10.32;;;6.00;;
19891;SDS011;10108;50.142;8.724;2023-09-07T14:18:01;15.18;;;6.50;;
19891;SDS011;10108;50.142;8.724;2023-09-07T14:20:28;11.68;;;5.75;;
19891;SDS011;10108;50.142;8.724;2023-09-07T14:22:54;13.02;;;6.32;;
19891;SDS011;10108;50.142;8.724;2023-09-07T14:25:23;14.02;;;6.30;;
19891;SDS011;10108;50.142;8.724;2023-09-07T14:27:49;14.73;;;5.93;;
19891;SDS011;10108;50.142;8.724;2023-09-07T14:30:16;14.98;;;6.28;;
19891;SDS011;10108;50.142;8.724;2023-09-07T14:32:43;13.68;;;6.38;;
19891;SDS011;10108;50.142;8.724;2023-09-07T14:35:12;10.75;;;6.07;;